Wetterstation Rottenburg Seebronn / 442m msl / http://mut-lambrecht.de
LETZTE AKTUALISIERUNG UM: 02:25 DATUM: April 11 2021, time of next update: 02:30
Aktuelles WetterClear/Night Aktuelle Temperatur 8.7°C (47.7°F), Apparent temp 7.7°C
Höchsttemperatur (seit Mitternacht)12.4°C um: 00:00 Tiefsttemperatur (seit Mitternacht)8.7°C um: 02:20
Windgeschwindigkeit (10 Minuten )0.0 kmh (0.0 kts) Windrichtung (Dir) (10 Minuten )WSW (245°)
Windchill Temperatur 8.7°C Windspitzen (letzte Std)4.4 kmh (2.4 kts) um: 01:25
Windspitzen (seit Mitternacht)18.9 kmh (10.2 kts) um: 00:04 Höchstes Windmittel / Minute (seit Mitternacht)12.0 kmh (6.5 kts) um: 00:12
Regenmenge (letzte Std)0.0 mm Regenmenge (seit Mitternacht)0.0 mm (0.00 in.)---
Regenmenge diesen Monat 11.1 mm (0.44 in.) Regenmenge seit Jahresbeginn 572.2 mm (22.53 in.)
Höchste Regenmenge pro Minute (letzte Std)0.0 mm/min Höchste Regenmenge pro Stunde (letzte 6 Std)0.0 mm/stunde
Regenmenge Gestern 0.0 mm Taupunkt 1.8°C (Wet Bulb :5.8°C )
Luftfeuchtigkeit 62 %, Humidex 7.0°C Aktueller Luftdruck (auf Meereshöhe bezogen)1011.8 hPa
Luftdrucktendenz 0.0 hPa (letzte Std) Trend (letzte 1 Std)gleichbleibend
Luftdrucktendenz (letzte 12 Std)-5.0 hPa Luftdrucktendenz (letzte 6 Std)-0.8 hPa



Weather report/warning/Metars

Stuttgart-Echterdingen, Germany (EDDS) 48-41N 009-13E 391M
Apr 10, 2021 - 07:50 PM EDT / 2021.04.10 2350 UTC
Wind: from the SW (220 degrees) at 5 MPH (4 KT) (direction variable):0
Visibility: greater than 7 mile(s):0
Temperature: 48 F (9 C)
Dew Point: 35 F (2 C)
Relative Humidity: 61%
Pressure (altimeter): 29.83 in. Hg (1010 hPa)
ob: EDDS 102350Z 22004KT 190V250 CAVOK 09/02 Q1010
cycle: 0
Karlsruhe, Baden Wurttemberg, Germany (EDSB) 48-46-43N 008-04-47E
Apr 10, 2021 - 07:50 PM EDT / 2021.04.10 2350 UTC
Wind: Variable at 2 MPH (2 KT):0
Visibility: greater than 7 mile(s):0
Sky conditions: partly cloudy
Temperature: 48 F (9 C)
Dew Point: 39 F (4 C)
Relative Humidity: 70%
Pressure (altimeter): 29.83 in. Hg (1010 hPa)
ob: EDSB 102350Z AUTO VRB02KT 9999 SCT065/// 09/04 Q1010
cycle: 0
Lahr, CAN-AFB, Germany (EDTL) 48-22-09N 007-49-40E
Apr 09, 2021 - 08:50 PM EDT / 2021.04.10 0050 UTC
Wind: from the S (180 degrees) at 15 MPH (13 KT):0
Visibility: greater than 7 mile(s):0
Temperature: 57 F (14 C)
Dew Point: 35 F (2 C)
Relative Humidity: 44%
Pressure (altimeter): 29.94 in. Hg (1014 hPa)
ob: EDTL 100050Z 18013KT CAVOK 14/02 Q1014
cycle: 1
Laupheim, Germany (ETHL) 48-13N 009-55E 550M
Apr 10, 2021 - 07:20 PM EDT / 2021.04.10 2320 UTC
Wind: from the SSW (210 degrees) at 5 MPH (4 KT):0
Visibility: 5 mile(s):0
Temperature: 51 F (11 C)
Dew Point: 33 F (1 C)
Relative Humidity: 50%
Pressure (altimeter): 29.85 in. Hg (1011 hPa)
ob: ETHL 102320Z AUTO 21004KT 9000 // ////// 11/01 Q1011 ///
cycle: 23



Die Wetterdaten werden alle 2 Minuten gespeichert, aber die Datenübertragung findet alle 5 Minuten statt.

Drücken Sie bitte auf "Aktualisieren" in Ihrem Browser, um die aktuellsten Daten zu erhalten.

Klicken Sie hier, um eine Übersicht der Durchschnitts- u. Extremwerte für den Monat zu erhalten
Created by "Weather Display" software version 10.37S at this start time/date 12:48:02 16.10.2016